Dave Leboeuf — WDG6234 — position and weather

sailwx.info

Track history (hours):
 
Tides and Currents Weather Stations Pressure Air Temp Water Temp Dewpoint Dewpoint Depression Visibility Wind Speed Wind Dir Waves Ship Positions

Dave Leboeuf

Owner: LeBeouf Bros. Towing, LLC, Houma, LA. More information available from US FCC via Universal Licensing System and Coast Guard Vessel Documentation Center.

Last reported at 2018-Jan-19 06:40 UTC. Time now 2018-Jan-19 07:18 UTC.
Position N 29°43' W 095°03'.

Length 22 m; draft 0.3 m.

Type: Ship. MMSI: 367554830.

Date/timePositionNaut miles runAvg speedWind from/ knotsBaromVisibWave heightAir tempDewpointWater temp
2018-Jan-19 06:40N 29°43' W 095°03'0 0.0
2018-Jan-19 06:12N 29°43' W 095°03'1 0.2
2018-Jan-18 22:50N 29°43' W 095°01'1 1.8
2018-Jan-18 22:25N 29°42' W 095°02'1 0.1
2018-Jan-18 10:48N 29°43' W 095°03'1 1.7
2018-Jan-18 09:58N 29°42' W 095°01'3 5.7
2018-Jan-18 09:30N 29°41' W 094°59'3 6.7
2018-Jan-18 08:59N 29°37' W 094°58'3 7.1
2018-Jan-18 08:30N 29°34' W 094°56'  
2018-Jan-12 14:53N 29°45' W 095°06'0 0.0
2018-Jan-12 08:34N 29°45' W 095°06'0 0.0
2018-Jan-12 06:44N 29°45' W 095°06'0 0.0
2018-Jan-12 06:08N 29°45' W 095°06'0 0.1
2018-Jan-12 05:59N 29°45' W 095°06'0 0.0
2018-Jan-12 04:25N 29°45' W 095°06'0 0.0
2018-Jan-12 03:57N 29°45' W 095°06'5 1.5
2018-Jan-12 00:33N 29°43' W 095°01'1 0.0
2018-Jan-09 23:12N 29°42' W 095°03'0 0.2
2018-Jan-09 22:45N 29°43' W 095°03'0 0.0
2018-Jan-09 22:31N 29°43' W 095°03'0 0.0
2018-Jan-09 20:07N 29°43' W 095°03'0 0.0
2018-Jan-09 20:00N 29°43' W 095°03'0 0.0
2018-Jan-09 19:26N 29°42' W 095°03'0 0.0
2018-Jan-09 18:55N 29°42' W 095°03'0 0.0
2018-Jan-09 18:28N 29°43' W 095°03'0 0.0
2018-Jan-09 18:00N 29°42' W 095°03'0 0.0
2018-Jan-09 17:30N 29°43' W 095°03'0 0.0
2018-Jan-09 16:58N 29°42' W 095°03'0 0.0
2018-Jan-09 16:30N 29°43' W 095°03'0 0.0
2018-Jan-09 15:59N 29°42' W 095°03'0 0.0
2018-Jan-09 15:20N 29°42' W 095°03'  
Track history (hours):
 
Tides and Currents Weather Stations Pressure Air Temp Water Temp Dewpoint Dewpoint Depression Visibility Wind Speed Wind Dir Waves Ship Positions

Dave Leboeuf

Owner: LeBeouf Bros. Towing, LLC, Houma, LA. More information available from US FCC via Universal Licensing System and Coast Guard Vessel Documentation Center.

Last reported at 2018-Jan-19 06:40 UTC. Time now 2018-Jan-19 07:18 UTC.
Position N 29°43' W 095°03'.

Length 22 m; draft 0.3 m.

Type: Ship. MMSI: 367554830.

Date/timePositionNaut miles runAvg speedWind from/ knotsBaromVisibWave heightAir tempDewpointWater temp
2018-Jan-19 06:40N 29°43' W 095°03'0 0.0
2018-Jan-19 06:12N 29°43' W 095°03'1 0.2
2018-Jan-18 22:50N 29°43' W 095°01'1 1.8
2018-Jan-18 22:25N 29°42' W 095°02'1 0.1
2018-Jan-18 10:48N 29°43' W 095°03'1 1.7
2018-Jan-18 09:58N 29°42' W 095°01'3 5.7
2018-Jan-18 09:30N 29°41' W 094°59'3 6.7
2018-Jan-18 08:59N 29°37' W 094°58'3 7.1
2018-Jan-18 08:30N 29°34' W 094°56'  
2018-Jan-12 14:53N 29°45' W 095°06'0 0.0
2018-Jan-12 08:34N 29°45' W 095°06'0 0.0
2018-Jan-12 06:44N 29°45' W 095°06'0 0.0
2018-Jan-12 06:08N 29°45' W 095°06'0 0.1
2018-Jan-12 05:59N 29°45' W 095°06'0 0.0
2018-Jan-12 04:25N 29°45' W 095°06'0 0.0
2018-Jan-12 03:57N 29°45' W 095°06'5 1.5
2018-Jan-12 00:33N 29°43' W 095°01'1 0.0
2018-Jan-09 23:12N 29°42' W 095°03'0 0.2
2018-Jan-09 22:45N 29°43' W 095°03'0 0.0
2018-Jan-09 22:31N 29°43' W 095°03'0 0.0
2018-Jan-09 20:07N 29°43' W 095°03'0 0.0
2018-Jan-09 20:00N 29°43' W 095°03'0 0.0
2018-Jan-09 19:26N 29°42' W 095°03'0 0.0
2018-Jan-09 18:55N 29°42' W 095°03'0 0.0
2018-Jan-09 18:28N 29°43' W 095°03'0 0.0
2018-Jan-09 18:00N 29°42' W 095°03'0 0.0
2018-Jan-09 17:30N 29°43' W 095°03'0 0.0
2018-Jan-09 16:58N 29°42' W 095°03'0 0.0
2018-Jan-09 16:30N 29°43' W 095°03'0 0.0
2018-Jan-09 15:59N 29°42' W 095°03'0 0.0
2018-Jan-09 15:20N 29°42' W 095°03'  

Dump ship's entire track history